createdAt,value
2018-09-04T00:00:17.834Z,39.23
2018-09-04T00:01:21.200Z,38.07
2018-09-04T00:02:24.535Z,38.57
2018-09-04T00:03:27.854Z,36.50
2018-09-04T00:04:31.202Z,37.40
2018-09-04T00:05:34.568Z,38.10
2018-09-04T00:06:37.928Z,37.80
2018-09-04T00:07:41.271Z,38.23
2018-09-04T00:08:44.642Z,40.15
2018-09-04T00:09:48.571Z,36.77
2018-09-04T00:10:51.926Z,39.00
2018-09-04T00:11:55.286Z,39.37
2018-09-04T00:12:58.610Z,37.63
2018-09-04T00:14:01.947Z,37.90
2018-09-04T00:15:05.428Z,37.50
2018-09-04T00:16:10.756Z,37.47
2018-09-04T00:17:14.138Z,36.70
2018-09-04T00:18:17.470Z,36.10
2018-09-04T00:19:20.786Z,35.17
2018-09-04T00:20:24.122Z,37.10
2018-09-04T00:21:27.466Z,40.00
2018-09-04T00:22:30.830Z,37.00
2018-09-04T00:23:34.182Z,37.37
2018-09-04T00:24:37.537Z,38.40
2018-09-04T00:25:40.860Z,39.50
2018-09-04T00:26:44.239Z,39.80
2018-09-04T00:27:47.599Z,38.47
2018-09-04T00:28:50.914Z,38.83
2018-09-04T00:29:54.250Z,38.73
2018-09-04T00:30:57.814Z,37.27
2018-09-04T00:32:01.166Z,39.87
2018-09-04T00:33:04.506Z,37.83
2018-09-04T00:34:07.837Z,37.07
2018-09-04T00:35:11.207Z,38.20
2018-09-04T00:36:14.518Z,38.70
2018-09-04T00:37:17.851Z,38.80
2018-09-04T00:38:21.219Z,35.77
2018-09-04T00:39:24.541Z,36.27
2018-09-04T00:40:27.889Z,37.40
2018-09-04T00:41:31.212Z,35.40
2018-09-04T00:42:34.546Z,36.70
2018-09-04T00:43:37.914Z,38.10
2018-09-04T00:44:44.174Z,36.10
2018-09-04T00:45:47.484Z,36.00
2018-09-04T00:46:50.802Z,35.60
2018-09-04T00:47:54.150Z,37.03
2018-09-04T00:48:57.548Z,38.30
2018-09-04T00:50:00.870Z,36.33
2018-09-04T00:51:04.240Z,35.53
2018-09-04T00:52:07.574Z,35.87
2018-09-04T00:53:10.924Z,35.60
2018-09-04T00:54:14.315Z,34.63
2018-09-04T00:55:17.651Z,37.00
2018-09-04T00:56:20.964Z,35.77
2018-09-04T00:57:24.425Z,37.07
2018-09-04T00:58:27.739Z,35.70
2018-09-04T00:59:31.047Z,35.77
2018-09-04T01:00:34.362Z,35.30
2018-09-04T01:01:37.793Z,33.67
2018-09-04T01:02:41.135Z,34.77
2018-09-04T01:03:44.480Z,34.58
2018-09-04T01:04:48.734Z,34.80
2018-09-04T01:05:52.055Z,33.92
2018-09-04T01:06:55.518Z,36.25
2018-09-04T01:07:58.850Z,37.10
2018-09-04T01:09:02.324Z,34.70
2018-09-04T01:10:05.693Z,37.00
2018-09-04T01:11:09.025Z,35.92
2018-09-04T01:12:12.416Z,37.30
2018-09-04T01:13:15.738Z,37.65
2018-09-04T01:14:19.103Z,38.35
2018-09-04T01:15:22.442Z,37.67
2018-09-04T01:16:25.805Z,37.98
2018-09-04T01:17:29.118Z,38.23
2018-09-04T01:18:32.448Z,37.48
2018-09-04T01:19:35.800Z,35.03
2018-09-04T01:20:39.143Z,36.40
2018-09-04T01:21:42.465Z,36.38
2018-09-04T01:22:45.819Z,35.73
2018-09-04T01:23:49.147Z,34.55
2018-09-04T01:24:52.470Z,36.10
2018-09-04T01:25:55.791Z,35.88
2018-09-04T01:26:59.122Z,38.10
2018-09-04T01:28:02.486Z,39.15
2018-09-04T01:29:06.124Z,39.30
2018-09-04T01:30:09.444Z,39.05
2018-09-04T01:31:12.799Z,38.15
2018-09-04T01:32:16.170Z,39.92
2018-09-04T01:33:19.499Z,40.95
2018-09-04T01:34:22.839Z,41.68
2018-09-04T01:35:26.179Z,41.63
2018-09-04T01:36:29.501Z,38.48
2018-09-04T01:37:32.836Z,42.98
2018-09-04T01:38:36.176Z,43.02
2018-09-04T01:39:39.568Z,42.60
2018-09-04T01:40:42.882Z,41.33
2018-09-04T01:41:46.199Z,39.15
2018-09-04T01:42:49.559Z,40.80
2018-09-04T01:43:52.913Z,41.00
2018-09-04T01:44:56.287Z,39.42
2018-09-04T01:45:59.645Z,41.48
2018-09-04T01:47:02.991Z,41.58
2018-09-04T01:48:06.312Z,38.65
2018-09-04T01:49:09.674Z,40.38
2018-09-04T01:50:13.018Z,38.63
2018-09-04T01:51:16.374Z,39.58
2018-09-04T01:52:19.728Z,39.03
2018-09-04T01:53:23.063Z,38.10
2018-09-04T01:54:26.385Z,39.42
2018-09-04T01:55:29.763Z,38.78
2018-09-04T01:56:33.079Z,39.03
2018-09-04T01:57:36.404Z,39.33
2018-09-04T01:58:39.730Z,39.75
2018-09-04T01:59:43.059Z,40.43
2018-09-04T02:00:46.404Z,39.38
2018-09-04T02:01:49.786Z,39.38
2018-09-04T02:02:53.110Z,39.25
2018-09-04T02:03:56.426Z,40.60
2018-09-04T02:04:59.772Z,39.95
2018-09-04T02:06:03.134Z,39.50
2018-09-04T02:07:06.481Z,38.17
2018-09-04T02:08:09.787Z,40.70
2018-09-04T02:09:13.144Z,42.50
2018-09-04T02:10:16.480Z,42.78
2018-09-04T02:11:19.830Z,41.80
2018-09-04T02:12:23.192Z,39.27
2018-09-04T02:13:26.515Z,42.58
2018-09-04T02:14:29.835Z,42.27
2018-09-04T02:15:33.224Z,41.63
2018-09-04T02:16:36.619Z,43.45
2018-09-04T02:17:39.931Z,42.75
2018-09-04T02:18:43.266Z,44.83
2018-09-04T02:19:46.587Z,43.28
2018-09-04T02:20:49.962Z,45.70
2018-09-04T02:21:53.280Z,42.98
2018-09-04T02:22:56.629Z,44.70
2018-09-04T02:23:59.950Z,41.92
2018-09-04T02:25:03.296Z,44.38
2018-09-04T02:26:06.675Z,44.77
2018-09-04T02:27:09.991Z,46.08
2018-09-04T02:28:13.308Z,45.52
2018-09-04T02:29:16.623Z,44.40
2018-09-04T02:30:19.938Z,43.73
2018-09-04T02:31:23.276Z,45.55
2018-09-04T02:32:26.602Z,44.90
2018-09-04T02:33:29.918Z,45.45
2018-09-04T02:34:33.235Z,45.05
2018-09-04T02:35:36.551Z,46.08
2018-09-04T02:36:39.983Z,46.33
2018-09-04T02:37:43.301Z,47.10
2018-09-04T02:38:46.610Z,46.40
2018-09-04T02:39:49.968Z,47.48
2018-09-04T02:40:53.270Z,47.45
2018-09-04T02:41:56.590Z,49.27
2018-09-04T02:42:59.934Z,47.55
2018-09-04T02:44:03.315Z,47.83
2018-09-04T02:45:06.680Z,49.00
2018-09-04T02:46:10.051Z,47.30
2018-09-04T02:47:13.367Z,46.37
2018-09-04T02:48:16.717Z,46.68
2018-09-04T02:49:20.042Z,46.60
2018-09-04T02:50:23.351Z,47.85
2018-09-04T02:51:26.678Z,46.55
2018-09-04T02:52:30.008Z,43.20
2018-09-04T02:53:33.343Z,43.87
2018-09-04T02:54:36.695Z,46.00
2018-09-04T02:55:40.007Z,45.03
2018-09-04T02:56:43.322Z,43.25
2018-09-04T02:57:46.635Z,45.43
2018-09-04T02:58:50.035Z,43.60
2018-09-04T02:59:53.353Z,46.05
2018-09-04T03:00:56.691Z,45.10
2018-09-04T03:02:00.023Z,42.67
2018-09-04T03:03:03.334Z,44.65
2018-09-04T03:04:06.676Z,42.83
2018-09-04T03:05:10.029Z,45.05
2018-09-04T03:06:13.422Z,44.23
2018-09-04T03:07:16.721Z,46.23
2018-09-04T03:08:20.040Z,46.92
2018-09-04T03:09:23.422Z,44.65
2018-09-04T03:10:26.727Z,44.20
2018-09-04T03:11:30.038Z,44.13
2018-09-04T03:12:33.360Z,43.35
2018-09-04T03:13:36.771Z,43.85
2018-09-04T03:14:40.055Z,43.40
2018-09-04T03:15:43.380Z,41.80
2018-09-04T03:16:46.695Z,43.00
2018-09-04T03:17:50.031Z,43.48
2018-09-04T03:18:53.389Z,43.35
2018-09-04T03:19:56.706Z,44.40
2018-09-04T03:21:00.022Z,42.93
2018-09-04T03:22:03.398Z,44.75
2018-09-04T03:23:07.008Z,44.53
2018-09-04T03:24:10.338Z,45.48
2018-09-04T03:25:13.678Z,44.27
2018-09-04T03:26:16.987Z,43.13
2018-09-04T03:27:20.331Z,43.68
2018-09-04T03:28:23.688Z,42.00
2018-09-04T03:29:27.004Z,42.48
2018-09-04T03:30:30.467Z,46.58
2018-09-04T03:31:33.779Z,43.20
2018-09-04T03:32:37.095Z,43.75
2018-09-04T03:33:40.431Z,45.00
2018-09-04T03:34:43.754Z,47.58
2018-09-04T03:35:47.108Z,44.85
2018-09-04T03:36:50.425Z,46.68
2018-09-04T03:37:53.759Z,48.10
2018-09-04T03:38:57.166Z,47.30
2018-09-04T03:40:00.478Z,46.15
2018-09-04T03:41:03.789Z,47.95
2018-09-04T03:42:07.106Z,46.10
2018-09-04T03:43:10.455Z,45.92
2018-09-04T03:44:13.865Z,46.75
2018-09-04T03:45:17.158Z,49.15
2018-09-04T03:46:20.485Z,46.63
2018-09-04T03:47:23.847Z,45.25
2018-09-04T03:48:27.179Z,49.77
2018-09-04T03:49:30.505Z,46.95
2018-09-04T03:50:33.842Z,47.00
2018-09-04T03:51:37.184Z,50.67
2018-09-04T03:52:40.505Z,47.20
2018-09-04T03:53:43.892Z,49.73
2018-09-04T03:54:47.210Z,47.67
2018-09-04T03:55:50.522Z,46.13
2018-09-04T03:56:53.834Z,46.37
2018-09-04T03:57:57.146Z,47.85
2018-09-04T03:59:00.549Z,48.15
2018-09-04T04:00:03.962Z,48.73
2018-09-04T04:01:07.363Z,47.60
2018-09-04T04:02:10.715Z,49.15
2018-09-04T04:03:14.060Z,49.60
2018-09-04T04:04:17.412Z,50.17
2018-09-04T04:05:20.757Z,49.53
2018-09-04T04:06:24.125Z,47.30
2018-09-04T04:07:27.484Z,47.50
2018-09-04T04:08:30.812Z,49.95
2018-09-04T04:09:34.166Z,49.23
2018-09-04T04:10:37.528Z,49.58
2018-09-04T04:11:40.839Z,47.00
2018-09-04T04:12:44.195Z,48.80
2018-09-04T04:13:47.567Z,49.23
2018-09-04T04:14:50.890Z,49.27
2018-09-04T04:15:54.207Z,47.17
2018-09-04T04:16:57.549Z,50.17
2018-09-04T04:18:00.867Z,50.67
2018-09-04T04:19:04.282Z,50.10
2018-09-04T04:20:07.642Z,47.53
2018-09-04T04:21:11.003Z,50.08
2018-09-04T04:22:14.336Z,46.15
2018-09-04T04:23:17.677Z,47.50
2018-09-04T04:24:21.027Z,48.02
2018-09-04T04:25:24.350Z,47.67
2018-09-04T04:26:27.650Z,47.30
2018-09-04T04:27:31.036Z,47.23
2018-09-04T04:28:34.367Z,50.65
2018-09-04T04:29:37.711Z,47.55
2018-09-04T04:30:41.032Z,46.90
2018-09-04T04:31:44.395Z,49.40
2018-09-04T04:32:47.746Z,48.87
2018-09-04T04:33:51.510Z,49.00
2018-09-04T04:34:54.888Z,51.95
2018-09-04T04:35:58.236Z,48.98
2018-09-04T04:37:01.619Z,49.70
2018-09-04T04:38:04.976Z,49.83
2018-09-04T04:39:09.138Z,48.80
2018-09-04T04:40:12.637Z,48.92
2018-09-04T04:41:15.852Z,49.60
2018-09-04T04:42:19.215Z,48.83
2018-09-04T04:43:22.598Z,47.60
2018-09-04T04:44:25.918Z,49.18
2018-09-04T04:45:29.239Z,50.03
2018-09-04T04:46:32.556Z,50.78
2018-09-04T04:47:41.443Z,48.45
2018-09-04T04:48:44.754Z,48.08
2018-09-04T04:49:48.107Z,49.98
2018-09-04T04:50:51.430Z,48.28
2018-09-04T04:51:54.750Z,49.90
2018-09-04T04:52:58.079Z,50.60
2018-09-04T04:54:01.428Z,49.10
2018-09-04T04:55:04.822Z,47.75
2018-09-04T04:56:08.172Z,49.23
2018-09-04T04:57:11.506Z,47.45
2018-09-04T04:58:14.832Z,48.17
2018-09-04T04:59:18.190Z,46.92
2018-09-04T05:00:21.551Z,46.70
2018-09-04T05:01:24.892Z,47.93
2018-09-04T05:02:28.223Z,47.38
2018-09-04T05:03:31.543Z,46.68
2018-09-04T05:04:34.913Z,45.45
2018-09-04T05:05:38.235Z,47.55
2018-09-04T05:06:41.566Z,42.38
2018-09-04T05:07:44.872Z,45.03
2018-09-04T05:08:48.187Z,46.65
2018-09-04T05:09:51.570Z,43.65
2018-09-04T05:10:54.939Z,45.73
2018-09-04T05:11:58.292Z,43.58
2018-09-04T05:13:01.627Z,44.55
2018-09-04T05:14:04.936Z,47.55
2018-09-04T05:15:08.335Z,43.58
2018-09-04T05:16:11.662Z,44.65
2018-09-04T05:17:15.058Z,41.73
2018-09-04T05:18:18.410Z,45.45
2018-09-04T05:19:21.774Z,46.18
2018-09-04T05:20:26.762Z,42.83
2018-09-04T05:21:30.115Z,45.12
2018-09-04T05:22:33.475Z,44.73
2018-09-04T05:23:36.821Z,46.60
2018-09-04T05:24:40.159Z,46.73
2018-09-04T05:25:43.501Z,44.13
2018-09-04T05:26:46.865Z,47.10
2018-09-04T05:27:50.230Z,43.78
2018-09-04T05:28:53.595Z,43.52
2018-09-04T05:29:56.951Z,41.35
2018-09-04T05:31:00.307Z,46.65
2018-09-04T05:32:14.312Z,41.83
2018-09-04T05:33:22.667Z,41.40
2018-09-04T05:34:26.223Z,42.15
2018-09-04T05:35:33.708Z,41.73
2018-09-04T05:36:37.083Z,41.30
2018-09-04T05:37:41.099Z,42.53
2018-09-04T05:38:44.423Z,42.80
2018-09-04T05:39:47.744Z,42.13
2018-09-04T05:40:51.072Z,43.15
2018-09-04T05:41:54.403Z,43.75
2018-09-04T05:43:00.217Z,44.80
2018-09-04T05:44:03.559Z,43.35
2018-09-04T05:45:07.784Z,41.45
2018-09-04T05:46:15.575Z,43.13
2018-09-04T05:47:18.955Z,44.53
2018-09-04T05:48:22.292Z,43.35
2018-09-04T05:49:29.711Z,44.88
2018-09-04T05:50:33.130Z,45.85
2018-09-04T05:51:36.451Z,41.48
2018-09-04T05:52:39.770Z,42.70
2018-09-04T05:53:43.122Z,42.43
2018-09-04T05:54:46.443Z,41.10
2018-09-04T05:55:49.877Z,39.27
2018-09-04T05:56:53.210Z,39.35
2018-09-04T05:57:56.790Z,40.17
2018-09-04T05:59:00.180Z,39.25
2018-09-04T06:00:06.355Z,39.98
2018-09-04T06:01:09.718Z,42.83
2018-09-04T06:02:13.051Z,37.90
2018-09-04T06:03:16.403Z,40.95
2018-09-04T06:04:19.714Z,41.13
2018-09-04T06:05:23.331Z,40.10
2018-09-04T06:06:26.709Z,40.12
2018-09-04T06:07:30.051Z,41.45
2018-09-04T06:08:33.370Z,41.27
2018-09-04T06:09:36.682Z,42.40
2018-09-04T06:10:40.011Z,39.40
2018-09-04T06:11:43.682Z,39.67
2018-09-04T06:12:47.001Z,38.23
2018-09-04T06:13:50.456Z,37.80
2018-09-04T06:14:53.805Z,41.02
2018-09-04T06:15:57.179Z,40.38
2018-09-04T06:17:00.696Z,41.50
2018-09-04T06:18:04.093Z,40.80
2018-09-04T06:19:07.440Z,39.00
2018-09-04T06:20:10.931Z,42.05
2018-09-04T06:21:14.187Z,42.55
2018-09-04T06:22:17.511Z,41.48
2018-09-04T06:23:20.894Z,40.75
2018-09-04T06:24:24.223Z,41.58
2018-09-04T06:25:27.593Z,38.80
2018-09-04T06:26:30.918Z,39.97
2018-09-04T06:27:34.287Z,42.13
2018-09-04T06:28:37.747Z,41.95
2018-09-04T06:29:41.138Z,43.20
2018-09-04T06:30:44.498Z,44.13
2018-09-04T06:31:47.827Z,42.03
2018-09-04T06:32:51.170Z,43.55
2018-09-04T06:33:54.629Z,42.03
2018-09-04T06:34:57.992Z,42.05
2018-09-04T06:36:01.319Z,40.58
2018-09-04T06:37:04.770Z,41.37
2018-09-04T06:38:08.102Z,42.13
2018-09-04T06:39:11.973Z,41.70
2018-09-04T06:40:15.291Z,41.05
2018-09-04T06:41:18.657Z,40.60
2018-09-04T06:42:22.001Z,40.48
2018-09-04T06:43:25.374Z,39.38
2018-09-04T06:44:28.747Z,42.58
2018-09-04T06:45:32.127Z,41.10
2018-09-04T06:46:35.527Z,42.93
2018-09-04T06:47:38.874Z,42.38
2018-09-04T06:48:42.211Z,40.00
2018-09-04T06:49:45.577Z,41.70
2018-09-04T06:50:48.906Z,41.13
2018-09-04T06:51:52.282Z,38.80
2018-09-04T06:52:55.614Z,40.50
2018-09-04T06:53:58.942Z,38.13
2018-09-04T06:55:02.275Z,39.23
2018-09-04T06:56:06.295Z,39.35
2018-09-04T06:57:09.685Z,41.20
2018-09-04T06:58:13.354Z,39.05
2018-09-04T06:59:16.687Z,41.35
2018-09-04T07:00:20.014Z,37.95
2018-09-04T07:01:23.375Z,39.25
2018-09-04T07:02:26.752Z,41.70
2018-09-04T07:03:30.079Z,39.73
2018-09-04T07:04:33.411Z,41.73
2018-09-04T07:05:36.736Z,41.13
2018-09-04T07:06:40.071Z,41.60
2018-09-04T07:07:43.463Z,40.70
2018-09-04T07:08:46.803Z,41.33
2018-09-04T07:09:50.123Z,40.20
2018-09-04T07:10:53.475Z,42.38
2018-09-04T07:11:56.835Z,40.83
2018-09-04T07:13:00.171Z,40.38
2018-09-04T07:14:03.581Z,40.28
2018-09-04T07:15:07.248Z,42.10
2018-09-04T07:16:10.584Z,40.95
2018-09-04T07:17:13.961Z,39.70
2018-09-04T07:18:17.323Z,39.85
2018-09-04T07:19:20.982Z,42.13
2018-09-04T07:20:24.323Z,40.05
2018-09-04T07:21:34.359Z,40.23
2018-09-04T07:22:37.745Z,38.92
2018-09-04T07:23:41.091Z,40.73
2018-09-04T07:24:44.438Z,40.70
2018-09-04T07:25:47.951Z,39.67
2018-09-04T07:26:51.333Z,41.60
2018-09-04T07:27:54.675Z,41.97
2018-09-04T07:28:58.343Z,39.43
2018-09-04T07:30:01.694Z,40.90
2018-09-04T07:31:05.152Z,41.27
2018-09-04T07:32:08.509Z,40.43
2018-09-04T07:33:11.907Z,41.07
2018-09-04T07:34:15.219Z,41.23
2018-09-04T07:35:18.590Z,40.63
2018-09-04T07:36:21.972Z,39.17
2018-09-04T07:37:25.264Z,38.97
2018-09-04T07:38:28.635Z,41.00
2018-09-04T07:39:32.716Z,38.83
2018-09-04T07:40:36.038Z,39.80
2018-09-04T07:41:39.562Z,39.40
2018-09-04T07:42:42.885Z,38.67
2018-09-04T07:43:46.253Z,39.23
2018-09-04T07:44:49.594Z,39.03
2018-09-04T07:45:52.943Z,39.40
2018-09-04T07:46:56.258Z,39.60
2018-09-04T07:47:59.580Z,37.00
2018-09-04T07:49:02.978Z,36.47
2018-09-04T07:50:07.178Z,37.97
2018-09-04T07:51:10.495Z,36.20
2018-09-04T07:52:13.822Z,35.57
2018-09-04T07:53:17.204Z,37.23
2018-09-04T07:54:20.531Z,39.27
2018-09-04T07:55:24.092Z,38.40
2018-09-04T07:56:27.430Z,36.17
2018-09-04T07:57:30.775Z,36.17
2018-09-04T07:58:34.156Z,38.93
2018-09-04T07:59:37.560Z,37.30
2018-09-04T08:00:40.903Z,36.73
2018-09-04T08:01:44.227Z,38.70
2018-09-04T08:02:47.540Z,37.00
2018-09-04T08:03:50.875Z,37.67
2018-09-04T08:04:54.203Z,36.30
2018-09-04T08:05:57.515Z,36.70
2018-09-04T08:07:00.852Z,38.90
2018-09-04T08:08:04.229Z,36.90
2018-09-04T08:09:08.312Z,37.17
2018-09-04T08:10:11.648Z,34.00
2018-09-04T08:11:15.054Z,36.40
2018-09-04T08:12:18.363Z,36.53
2018-09-04T08:13:21.726Z,35.00
2018-09-04T08:14:25.474Z,36.00
2018-09-04T08:15:28.787Z,36.17
2018-09-04T08:16:32.133Z,37.13
2018-09-04T08:17:35.552Z,36.37
2018-09-04T08:18:38.899Z,37.03
2018-09-04T08:19:42.211Z,37.23
2018-09-04T08:20:45.551Z,38.13
2018-09-04T08:21:48.870Z,36.40
2018-09-04T08:22:54.279Z,36.90
2018-09-04T08:23:57.586Z,37.50
2018-09-04T08:25:00.911Z,38.10
2018-09-04T08:26:04.304Z,37.93
2018-09-04T08:27:07.631Z,36.47
2018-09-04T08:28:10.968Z,36.47
2018-09-04T08:29:14.292Z,37.70
2018-09-04T08:30:17.643Z,38.33
2018-09-04T08:31:20.994Z,38.70
2018-09-04T08:32:24.311Z,38.80
2018-09-04T08:33:27.629Z,39.97
2018-09-04T08:34:33.966Z,38.97
2018-09-04T08:35:37.313Z,38.00
2018-09-04T08:36:40.622Z,40.40
2018-09-04T08:37:44.003Z,40.00
2018-09-04T08:38:49.820Z,35.80
2018-09-04T08:39:53.152Z,39.60
2018-09-04T08:40:56.458Z,38.83
2018-09-04T08:41:59.767Z,34.73
2018-09-04T08:43:03.083Z,37.27
2018-09-04T08:44:06.472Z,37.73
2018-09-04T08:45:09.794Z,34.00
2018-09-04T08:46:13.103Z,35.40
2018-09-04T08:47:16.527Z,34.43
2018-09-04T08:48:21.275Z,36.03
2018-09-04T08:49:24.619Z,35.60
2018-09-04T08:50:29.390Z,34.13
2018-09-04T08:51:32.766Z,35.13
2018-09-04T08:52:36.081Z,33.50
2018-09-04T08:53:39.441Z,32.23
2018-09-04T08:54:42.802Z,32.67
2018-09-04T08:55:46.258Z,33.80
2018-09-04T08:56:49.594Z,32.53
2018-09-04T08:57:52.964Z,32.13
2018-09-04T08:58:56.274Z,30.63
2018-09-04T08:59:59.615Z,31.93
2018-09-04T09:01:02.934Z,30.43
2018-09-04T09:02:06.271Z,30.83
2018-09-04T09:03:09.738Z,30.97
2018-09-04T09:04:13.046Z,32.80
2018-09-04T09:05:16.587Z,30.20
2018-09-04T09:06:19.911Z,30.53
2018-09-04T09:07:23.263Z,30.90
2018-09-04T09:08:26.699Z,30.33
2018-09-04T09:09:30.065Z,31.13
2018-09-04T09:10:33.455Z,30.80
2018-09-04T09:11:36.792Z,30.87
2018-09-04T09:12:40.146Z,29.90
2018-09-04T09:13:43.456Z,30.90
2018-09-04T09:14:46.798Z,28.40
2018-09-04T09:15:50.444Z,27.77
2018-09-04T09:16:53.791Z,27.83
2018-09-04T09:17:57.134Z,26.90
2018-09-04T09:19:00.472Z,28.23
2018-09-04T09:20:03.807Z,26.97
2018-09-04T09:21:07.156Z,29.10
2018-09-04T09:22:10.514Z,28.57
2018-09-04T09:23:13.930Z,29.93
2018-09-04T09:24:17.273Z,25.13
2018-09-04T09:25:20.692Z,26.30
2018-09-04T09:26:24.038Z,25.37
2018-09-04T09:27:27.373Z,25.00
2018-09-04T09:28:30.707Z,26.00
2018-09-04T09:29:34.087Z,25.83
2018-09-04T09:30:37.403Z,25.13
2018-09-04T09:31:40.766Z,24.10
2018-09-04T09:32:44.113Z,25.23
2018-09-04T09:33:47.735Z,23.63
2018-09-04T09:34:51.036Z,24.27
2018-09-04T09:35:54.350Z,24.10
2018-09-04T09:36:57.752Z,23.97
2018-09-04T09:38:01.356Z,24.10
2018-09-04T09:39:06.209Z,23.77
2018-09-04T09:45:41.852Z,22.43
2018-09-04T09:46:45.370Z,20.80
2018-09-04T09:47:50.088Z,23.90
2018-09-04T09:48:53.613Z,22.87
2018-09-04T09:49:57.192Z,22.30
2018-09-04T09:51:00.740Z,22.00
2018-09-04T09:52:04.238Z,22.13
2018-09-04T09:53:07.827Z,21.17
2018-09-04T09:54:11.275Z,22.43
2018-09-04T09:55:14.799Z,20.77
2018-09-04T09:56:18.381Z,21.13
2018-09-04T09:57:21.894Z,20.97
2018-09-04T09:58:25.395Z,20.10
2018-09-04T09:59:29.068Z,19.67
2018-09-04T10:00:38.531Z,21.60
2018-09-04T10:01:47.334Z,20.03
2018-09-04T10:02:55.066Z,19.10
2018-09-04T10:04:00.825Z,18.10
2018-09-04T10:05:04.514Z,19.10
2018-09-04T10:06:08.123Z,19.60
2018-09-04T10:07:11.655Z,18.47
2018-09-04T10:08:15.210Z,19.50
2018-09-04T10:09:18.694Z,18.43
2018-09-04T10:10:22.219Z,19.87
2018-09-04T10:11:25.811Z,18.60
2018-09-04T10:12:29.278Z,17.83
2018-09-04T10:13:32.858Z,19.97
2018-09-04T10:14:36.733Z,19.50
2018-09-04T10:15:40.324Z,18.23
2018-09-04T10:16:43.886Z,18.13
2018-09-04T10:17:47.480Z,18.33
2018-09-04T10:18:50.998Z,20.40
2018-09-04T10:19:54.541Z,18.63
2018-09-04T10:20:58.109Z,17.13
2018-09-04T10:22:01.797Z,17.73
2018-09-04T10:23:05.450Z,15.30
2018-09-04T10:24:08.927Z,17.90
2018-09-04T10:25:12.539Z,17.73
2018-09-04T10:26:16.161Z,16.70
2018-09-04T10:27:19.731Z,16.70
2018-09-04T10:28:23.315Z,16.37
2018-09-04T10:29:27.181Z,16.63
2018-09-04T10:30:30.711Z,15.63
2018-09-04T10:31:34.285Z,15.67
2018-09-04T10:32:37.889Z,16.03
2018-09-04T10:33:41.389Z,16.10
2018-09-04T10:34:44.922Z,14.73
2018-09-04T10:35:48.500Z,14.00
2018-09-04T10:36:52.024Z,15.07
2018-09-04T10:37:55.541Z,15.53
2018-09-04T10:39:04.311Z,14.40
2018-09-04T10:40:13.269Z,14.50
2018-09-04T10:41:16.946Z,15.13
2018-09-04T10:42:34.973Z,14.90
2018-09-04T10:43:38.488Z,15.63
2018-09-04T10:44:42.010Z,13.97
2018-09-04T10:45:50.913Z,13.63
2018-09-04T10:46:54.381Z,13.97
2018-09-04T10:47:57.919Z,14.20
2018-09-04T10:49:01.545Z,14.67
2018-09-04T10:50:05.078Z,13.70
2018-09-04T10:51:08.608Z,13.80
2018-09-04T10:52:12.232Z,13.20
2018-09-04T10:53:15.686Z,13.33
2018-09-04T10:54:19.196Z,13.93
2018-09-04T10:55:22.873Z,14.37
2018-09-04T10:56:26.409Z,15.13
2018-09-04T10:57:30.052Z,13.63
2018-09-04T10:58:33.593Z,13.97
2018-09-04T10:59:37.193Z,13.53
2018-09-04T11:00:40.756Z,13.20
2018-09-04T11:01:44.262Z,13.67
2018-09-04T11:02:47.842Z,12.20
2018-09-04T11:03:51.342Z,13.90
2018-09-04T11:04:54.908Z,12.90
2018-09-04T11:05:58.433Z,13.37
2018-09-04T11:07:02.054Z,13.77
2018-09-04T11:08:05.655Z,14.07
2018-09-04T11:09:11.310Z,13.83
2018-09-04T11:10:14.840Z,12.83
2018-09-04T11:11:18.657Z,13.63
2018-09-04T11:12:22.203Z,14.60
2018-09-04T11:13:25.772Z,13.40
2018-09-04T11:14:29.321Z,12.90
2018-09-04T11:15:32.797Z,13.60
2018-09-04T11:16:36.449Z,13.40
2018-09-04T11:17:40.000Z,13.53
2018-09-04T11:18:43.527Z,13.17
2018-09-04T11:19:47.101Z,13.70
2018-09-04T11:20:50.668Z,12.47
2018-09-04T11:21:54.220Z,12.40
2018-09-04T11:22:57.676Z,13.40
2018-09-04T11:24:01.183Z,12.40
2018-09-04T11:25:04.767Z,12.80
2018-09-04T11:26:08.354Z,12.67
2018-09-04T11:27:11.915Z,13.03
2018-09-04T11:28:15.401Z,13.70
2018-09-04T11:29:18.917Z,12.63
2018-09-04T11:30:22.401Z,12.60
2018-09-04T11:31:26.013Z,12.17
2018-09-04T11:32:29.634Z,12.73
2018-09-04T11:33:33.175Z,12.40
2018-09-04T11:34:36.662Z,12.97
2018-09-04T11:35:40.235Z,11.47
2018-09-04T11:36:43.796Z,12.30
2018-09-04T11:37:47.295Z,12.80
2018-09-04T11:38:50.794Z,13.60
2018-09-04T11:39:54.353Z,12.90
2018-09-04T11:40:57.834Z,12.53
2018-09-04T11:42:01.354Z,12.53
2018-09-04T11:43:04.941Z,12.57
2018-09-04T11:44:08.502Z,13.40
2018-09-04T11:45:12.079Z,12.03
2018-09-04T11:46:15.695Z,11.90
2018-09-04T11:47:19.201Z,12.67
2018-09-04T11:48:22.728Z,13.27
2018-09-04T11:49:26.358Z,12.40
2018-09-04T11:50:29.890Z,12.53
2018-09-04T11:51:33.481Z,12.23
2018-09-04T11:52:37.279Z,11.40
2018-09-04T11:53:40.769Z,12.10
2018-09-04T11:54:44.324Z,13.53
2018-09-04T11:55:47.902Z,13.00
2018-09-04T11:56:51.583Z,12.40
2018-09-04T11:57:55.079Z,12.73
2018-09-04T11:58:58.646Z,12.13
2018-09-04T12:00:02.502Z,12.03
2018-09-04T12:01:13.815Z,11.87
2018-09-04T12:02:22.676Z,12.30
2018-09-04T12:03:26.348Z,12.80
2018-09-04T12:04:29.890Z,12.83
2018-09-04T12:05:33.377Z,12.00
2018-09-04T12:06:36.939Z,11.63
2018-09-04T12:07:40.406Z,11.67
2018-09-04T12:08:43.962Z,12.27
2018-09-04T12:09:48.044Z,12.20
2018-09-04T12:10:53.028Z,12.13
2018-09-04T12:11:56.961Z,11.93
2018-09-04T12:13:00.741Z,11.93
2018-09-04T12:14:04.322Z,12.60
2018-09-04T12:15:07.802Z,10.60
2018-09-04T12:16:11.406Z,11.07
2018-09-04T12:17:15.100Z,11.50
2018-09-04T12:18:24.505Z,11.00
2018-09-04T12:20:36.396Z,11.73
2018-09-04T12:21:39.930Z,11.20
2018-09-04T12:22:44.182Z,11.27
2018-09-04T12:23:47.765Z,12.10
2018-09-04T12:24:52.019Z,11.57
2018-09-04T12:25:56.886Z,10.90
2018-09-04T12:27:00.448Z,10.93
2018-09-04T12:28:04.223Z,12.07
2018-09-04T12:29:07.804Z,10.97
2018-09-04T12:30:11.851Z,10.63
2018-09-04T12:31:15.430Z,10.67
2018-09-04T12:32:18.963Z,10.70
2018-09-04T12:33:22.818Z,10.50
2018-09-04T12:34:26.523Z,11.13
2018-09-04T12:35:30.597Z,10.70
2018-09-04T12:36:34.435Z,11.50
2018-09-04T12:37:37.986Z,9.53
2018-09-04T12:38:42.805Z,10.37
2018-09-04T12:40:00.771Z,10.97
2018-09-04T12:41:07.004Z,10.47
2018-09-04T12:42:10.627Z,10.60
2018-09-04T12:43:14.155Z,10.30
2018-09-04T12:44:17.764Z,10.73
2018-09-04T12:45:21.292Z,10.50
2018-09-04T12:46:29.057Z,11.07
2018-09-04T12:47:32.796Z,10.83
2018-09-04T12:48:36.605Z,10.43
2018-09-04T12:49:40.154Z,9.37
2018-09-04T12:50:43.923Z,10.23
2018-09-04T12:51:47.556Z,10.47
2018-09-04T12:52:51.273Z,10.33
2018-09-04T12:53:54.862Z,10.20
2018-09-04T12:54:58.458Z,9.87
2018-09-04T12:56:02.127Z,10.83
2018-09-04T12:57:06.735Z,10.67
2018-09-04T12:58:10.356Z,10.73
2018-09-04T12:59:13.952Z,9.73
2018-09-04T13:00:18.935Z,10.27
2018-09-04T13:01:22.473Z,10.20
2018-09-04T13:02:26.016Z,10.63
2018-09-04T13:03:30.052Z,11.40
2018-09-04T13:04:33.618Z,9.90
2018-09-04T13:05:37.449Z,9.40
2018-09-04T13:06:41.083Z,9.60
2018-09-04T13:07:44.817Z,9.57
2018-09-04T13:08:48.333Z,10.37
2018-09-04T13:09:52.111Z,9.57
2018-09-04T13:10:55.620Z,10.23
2018-09-04T13:11:59.165Z,9.60
2018-09-04T13:13:02.784Z,10.20
2018-09-04T13:14:06.655Z,10.27
2018-09-04T13:15:10.930Z,9.80
2018-09-04T13:16:14.514Z,8.90
2018-09-04T13:17:18.033Z,9.37
2018-09-04T13:18:21.598Z,9.27
2018-09-04T13:19:25.218Z,10.37
2018-09-04T13:20:28.780Z,9.00
2018-09-04T13:21:32.478Z,10.10
2018-09-04T13:22:36.107Z,10.33
2018-09-04T13:23:39.841Z,9.97
2018-09-04T13:24:43.294Z,9.80
2018-09-04T13:25:47.009Z,9.60
2018-09-04T13:26:50.556Z,10.27
2018-09-04T13:27:54.132Z,9.97
2018-09-04T13:28:57.595Z,10.23
2018-09-04T13:30:01.289Z,9.50
2018-09-04T13:31:04.892Z,10.40
2018-09-04T13:32:08.457Z,10.50
2018-09-04T13:33:12.041Z,10.20
2018-09-04T13:34:15.680Z,9.90
2018-09-04T13:35:19.307Z,10.10
2018-09-04T13:36:22.918Z,10.17
2018-09-04T13:37:26.448Z,9.23
2018-09-04T13:38:29.942Z,9.77
2018-09-04T13:39:33.480Z,10.33
2018-09-04T13:40:37.179Z,10.27
2018-09-04T13:41:40.723Z,9.60
2018-09-04T13:42:44.379Z,9.70
2018-09-04T13:43:48.066Z,10.23
2018-09-04T13:44:54.303Z,10.33
2018-09-04T13:45:57.840Z,9.30
2018-09-04T13:47:01.349Z,9.23